Data for 11/30/2016

Time Sea-Level Adjusted Pressure Absolute Pressure Temperature Relative Humidity Dew Point   
(mb) (inHg) (mb) (inHg) (C) (F) (%) (C) (F)
00:05 1018 30.06 847 25.01 -7.4 18.7 79 -10.4 13.2
00:10 1018 30.06 847 25.01 -7.3 18.9 79 -10.4 13.3
00:15 1018 30.06 847 25.01 -7.3 18.8 79 -10.4 13.4
00:20 1018 30.06 847 25.01 -7.4 18.7 79 -10.4 13.3
00:25 1018 30.06 847 25.01 -7.2 19.1 79 -10.3 13.5
00:30 1018 30.06 847 25.01 -6.8 19.7 77 -10.2 13.6
00:35 1018 30.06 847 25.01 -6.7 19.9 78 -10 14
00:40 1018 30.06 847 25.01 -6.6 20.1 77 -10 14.1
00:45 1018 30.06 847 25.01 -6.4 20.5 76 -9.9 14.1
00:50 1018 30.06 847 25.01 -6.4 20.5 76 -9.9 14.2
00:55 1018 30.06 847 25.01 -6.5 20.4 76 -10 14
01:00 1018 30.06 847 25.01 -6.5 20.3 78 -9.8 14.4
01:05 1018 30.06 847 25.01 -6.6 20.1 78 -9.9 14.2
01:10 1018 30.06 847 25.01 -6.5 20.2 77 -9.9 14.2
01:15 1018 30.06 847 25.01 -6.5 20.2 77 -9.9 14.1
01:20 1018 30.06 847 25.01 -6.5 20.3 76 -10 13.9
01:25 1018 30.06 847 25.01 -6.4 20.4 76 -9.9 14.1
01:30 1018 30.06 847 25.01 -6.4 20.4 77 -9.8 14.3
01:35 1018 30.06 847 25.01 -6.3 20.6 77 -9.7 14.5
01:40 1018 30.06 847 25.01 -6.3 20.7 76 -9.8 14.3
01:45 1017 30.03 847 25.01 -6.1 21 76 -9.8 14.4
01:50 1017 30.03 847 25.01 -6.1 21 75 -9.8 14.4
01:55 1017 30.03 847 25.01 -6.2 20.9 76 -9.8 14.4
02:00 1017 30.03 846 24.98 -6.2 20.8 77 -9.7 14.5
02:05 1017 30.03 846 24.98 -6.2 20.8 76 -9.8 14.4
02:10 1017 30.03 846 24.98 -6.3 20.7 77 -9.7 14.5
02:15 1017 30.03 846 24.98 -6.2 20.8 76 -9.8 14.4
02:20 1017 30.03 846 24.98 -6.2 20.9 76 -9.8 14.3
02:25 1017 30.03 846 24.98 -6.3 20.7 76 -9.9 14.1
02:30 1017 30.03 846 24.98 -6.2 20.9 74 -10 13.9
02:35 1017 30.03 846 24.98 -6 21.3 74 -9.9 14.2
02:40 1017 30.03 846 24.98 -5.9 21.4 73 -10 14
02:45 1017 30.03 846 24.98 -5.8 21.5 74 -9.8 14.3
02:50 1017 30.03 846 24.98 -5.8 21.5 73 -9.8 14.3
02:55 1017 30.03 846 24.98 -5.8 21.5 74 -9.8 14.3
03:00 1017 30.03 846 24.98 -5.9 21.4 74 -9.8 14.3
03:05 1017 30.03 846 24.98 -5.8 21.5 73 -9.9 14.1
03:10 1017 30.03 846 24.98 -5.8 21.6 73 -9.9 14.2
03:15 1017 30.03 846 24.98 -5.8 21.6 73 -9.9 14.2
03:20 1017 30.03 846 24.98 -5.9 21.4 74 -9.8 14.4
03:25 1017 30.03 846 24.98 -6 21.1 74 -9.9 14.2
03:30 1017 30.03 846 24.98 -6.1 21.1 74 -10 13.9
03:35 1017 30.03 846 24.98 -6 21.2 73 -10 13.9
03:40 1017 30.03 846 24.98 -6 21.2 73 -10.1 13.8
03:45 1017 30.03 846 24.98 -5.9 21.4 72 -10.2 13.6
03:50 1017 30.03 846 24.98 -5.8 21.5 73 -9.9 14.1
03:55 1017 30.03 846 24.98 -5.9 21.4 74 -9.8 14.3
04:00 1017 30.03 846 24.98 -5.9 21.4 74 -9.8 14.4
04:05 1017 30.03 846 24.98 -5.9 21.4 74 -9.8 14.4
04:10 1017 30.03 846 24.98 -6.2 20.8 75 -9.9 14.2
04:15 1017 30.03 846 24.98 -6.4 20.5 75 -10.1 13.9
04:20 1017 30.03 846 24.98 -6.5 20.4 76 -10.1 13.9
04:25 1017 30.03 846 24.98 -6.6 20.2 76 -10.1 13.8
04:30 1016 30 846 24.98 -6.6 20.2 76 -10.1 13.8
04:35 1016 30 846 24.98 -6.6 20.2 75 -10.2 13.6
04:40 1016 30 846 24.98 -6.5 20.4 74 -10.3 13.4
04:45 1016 30 845 24.95 -6.5 20.2 73 -10.6 13
04:50 1016 30 845 24.95 -6.7 20 74 -10.6 13
04:55 1016 30 845 24.95 -6.8 19.8 74 -10.7 12.7
05:00 1016 30 845 24.95 -6.6 20.2 73 -10.7 12.7
05:05 1016 30 845 24.95 -6.4 20.4 74 -10.4 13.2
05:10 1016 30 845 24.95 -6.6 20.1 75 -10.3 13.4
05:15 1016 30 845 24.95 -6.7 20 73 -10.8 12.6
05:20 1016 30 845 24.95 -6.7 19.9 74 -10.6 12.9
05:25 1016 30 845 24.95 -6.9 19.5 74 -10.8 12.6
05:30 1016 30 845 24.95 -6.9 19.6 75 -10.6 12.9
05:35 1016 30 845 24.95 -7 19.5 76 -10.5 13.1
05:40 1016 30 845 24.95 -7.1 19.2 77 -10.6 13
05:45 1016 30 845 24.95 -7.4 18.8 77 -10.7 12.7
05:50 1016 30 845 24.95 -7.6 18.2 77 -10.9 12.3
05:55 1016 30 845 24.95 -7.9 17.9 78 -11 12.1
06:00 1016 30 845 24.95 -7.9 17.7 78 -11.1 12
06:05 1016 30 845 24.95 -8 17.7 77 -11.3 11.7
06:10 1016 30 845 24.95 -8.1 17.4 77 -11.4 11.4
06:15 1016 30 845 24.95 -7.9 17.8 76 -11.4 11.5
06:20 1016 30 845 24.95 -7.8 18 75 -11.5 11.2
06:25 1016 30 845 24.95 -7.4 18.6 72 -11.6 11.2
06:30 1016 30 845 24.95 -7.2 19.1 71 -11.7 11
06:35 1016 30 845 24.95 -6.8 19.7 70 -11.4 11.5
06:40 1016 30 845 24.95 -7.2 19 70 -11.8 10.7
06:45 1016 30 845 24.95 -7.2 19.1 70 -11.8 10.7
06:50 1016 30 845 24.95 -7.3 18.9 70 -11.9 10.6
06:55 1016 30 845 24.95 -7.6 18.3 70 -12.2 10.1
07:00 1016 30 845 24.95 -7.7 18.2 71 -12.1 10.2
07:05 1016 30 845 24.95 -7.4 18.7 69 -12.2 10.1
07:10 1016 30 845 24.95 -7.7 18.1 71 -12.2 10.1
07:15 1016 30 845 24.95 -8.1 17.5 72 -12.3 9.8
07:20 1016 30 845 24.95 -8.1 17.4 71 -12.4 9.7
07:25 1016 30 845 24.95 -7.9 17.7 71 -12.4 9.7
07:30 1016 30 845 24.95 -7.8 18 69 -12.5 9.6
07:35 1016 30 845 24.95 -7.7 18.1 69 -12.4 9.7
07:40 1015 29.97 845 24.95 -7.9 17.7 68 -12.8 8.9
07:45 1015 29.97 845 24.95 -8 17.6 68 -13 8.7
07:50 1015 29.97 845 24.95 -8.1 17.5 69 -12.7 9.1
07:55 1015 29.97 845 24.95 -8.4 16.9 71 -12.7 9.1
08:00 1015 29.97 845 24.95 -9.2 15.4 75 -12.9 8.8
08:05 1015 29.97 845 24.95 -9.4 15.1 74 -13.2 8.3
08:10 1015 29.97 845 24.95 -9.3 15.3 75 -12.9 8.8
08:15 1015 29.97 845 24.95 -9.5 14.9 75 -13.1 8.5
08:20 1015 29.97 845 24.95 -9.8 14.4 76 -13.2 8.2
08:25 1015 29.97 845 24.95 -9.7 14.6 75 -13.2 8.2
08:30 1015 29.97 845 24.95 -9.5 14.8 74 -13.3 8.1
08:35 1015 29.97 845 24.95 -9.6 14.8 75 -13.3 8.1
08:40 1015 29.97 845 24.95 -9.5 14.9 73 -13.5 7.8
08:45 1015 29.97 844 24.92 -9.7 14.5 75 -13.4 7.8
08:50 1015 29.97 844 24.92 -9.9 14.2 75 -13.6 7.6
08:55 1015 29.97 844 24.92 -10.1 13.8 76 -13.5 7.7
09:00 1015 29.97 844 24.92 -9.8 14.4 75 -13.5 7.8
09:05 1015 29.97 844 24.92 -9.7 14.6 73 -13.6 7.4
09:10 1015 29.97 844 24.92 -9.4 15.1 72 -13.6 7.5
09:15 1015 29.97 844 24.92 -9.4 15.1 73 -13.4 7.8
09:20 1015 29.97 844 24.92 -9.3 15.2 72 -13.4 7.8
09:25 1015 29.97 844 24.92 -9 15.8 71 -13.3 8
09:30 1015 29.97 844 24.92 -8.8 16.3 70 -13.3 8.1
09:35 1015 29.97 844 24.92 -8.6 16.5 70 -13.2 8.2
09:40 1015 29.97 844 24.92 -8.6 16.5 70 -13.2 8.2
09:45 1015 29.97 844 24.92 -8.4 16.9 69 -13.2 8.3
09:50 1015 29.97 844 24.92 -8.1 17.5 67 -13.1 8.4
09:55 1015 29.97 844 24.92 -7.8 18 66 -13 8.6
10:00 1015 29.97 844 24.92 -7.6 18.3 66 -13 8.7
10:05 1015 29.97 844 24.92 -7.4 18.8 65 -12.9 8.8
10:10 1015 29.97 844 24.92 -7.4 18.7 65 -12.9 8.7
10:15 1015 29.97 844 24.92 -7.1 19.3 64 -12.8 8.9
10:20 1015 29.97 844 24.92 -6.9 19.6 64 -12.7 9.2
10:25 1015 29.97 844 24.92 -6.8 19.7 63 -12.7 9.2
10:30 1015 29.97 844 24.92 -6.4 20.5 61 -12.7 9.1
10:35 1015 29.97 844 24.92 -5.9 21.4 60 -12.5 9.5
10:40 1015 29.97 844 24.92 -5.7 21.7 60 -12.2 10
10:45 1015 29.97 844 24.92 -5.4 22.2 59 -12.2 10.1
10:50 1015 29.97 844 24.92 -5.4 22.2 59 -12.3 9.8
10:55 1015 29.97 844 24.92 -5.3 22.4 58 -12.3 9.8
11:00 1015 29.97 844 24.92 -5 23 57 -12.3 9.8
11:05 1015 29.97 844 24.92 -5 23 57 -12.3 9.9
11:10 1015 29.97 844 24.92 -4.6 23.8 56 -12 10.3
11:15 1015 29.97 844 24.92 -4.3 24.3 55 -12 10.4
11:20 1015 29.97 844 24.92 -3.6 25.5 53 -11.8 10.8
11:25 1015 29.97 844 24.92 -3.2 26.2 52 -11.8 10.8
11:30 1015 29.97 844 24.92 -2.7 27.1 51 -11.6 11.1
11:35 1015 29.97 844 24.92 -2.3 27.9 49 -11.7 11
11:40 1015 29.97 844 24.92 -2.5 27.4 50 -11.6 11.2
11:45 1015 29.97 844 24.92 -2.6 27.4 49 -11.8 10.7
11:50 1015 29.97 844 24.92 -2.4 27.6 48 -11.9 10.5
11:55 1015 29.97 844 24.92 -2 28.3 49 -11.4 11.5
12:00 1015 29.97 844 24.92 -2 28.5 48 -11.5 11.2
12:05 1015 29.97 844 24.92 -2 28.4 49 -11.5 11.3
12:10 1015 29.97 844 24.92 -1.6 29.2 47 -11.4 11.5
12:15 1015 29.97 844 24.92 -1.3 29.6 47 -11.2 11.8
12:20 1015 29.97 844 24.92 -1.4 29.4 49 -10.9 12.4
12:25 1015 29.97 844 24.92 -1.6 29.1 50 -10.7 12.8
12:30 1015 29.97 844 24.92 -2 28.4 52 -10.6 13
12:35 1015 29.97 844 24.92 -2.5 27.6 54 -10.7 12.8
12:40 1015 29.97 844 24.92 -2.4 27.7 50 -11.4 11.5
12:45 1015 29.97 844 24.92 -2.2 28 51 -11 12.1
12:50 1015 29.97 844 24.92 -1.7 28.9 49 -11 12.2
12:55 1015 29.97 844 24.92 -1.3 29.7 49 -10.8 12.6
13:00 1015 29.97 844 24.92 -1.4 29.4 48 -11.1 12
13:05 1015 29.97 844 24.92 -1.7 28.9 47 -11.5 11.3
13:10 1015 29.97 844 24.92 -1.9 28.5 50 -10.9 12.3
13:15 1015 29.97 844 24.92 -1.9 28.5 48 -11.5 11.2
13:20 1015 29.97 844 24.92 -1.9 28.7 50 -11 12.1
13:25 1015 29.97 844 24.92 -0.7 30.7 45 -11.2 11.9
13:30 1015 29.97 844 24.92 0.1 32.1 46 -10.3 13.4
13:35 1015 29.97 844 24.92 -0.1 31.8 44 -10.9 12.5
13:40 1015 29.97 844 24.92 -0.1 31.7 45 -10.8 12.6
13:45 1015 29.97 844 24.92 -0 32 50 -9.4 15.1
13:50 1015 29.97 844 24.92 -0.6 31 50 -9.8 14.3
13:55 1015 29.97 844 24.92 -0.3 31.4 46 -10.5 13.1
14:00 1015 29.97 844 24.92 -0.3 31.5 47 -10.4 13.3
14:05 1015 29.97 844 24.92 -0.3 31.5 47 -10.3 13.5
14:10 1014 29.94 844 24.92 -0.3 31.4 44 -11.1 12
14:15 1014 29.94 844 24.92 -0.3 31.4 44 -11.2 11.8
14:20 1014 29.94 844 24.92 -0.2 31.6 42 -11.6 11.1
14:25 1014 29.94 843 24.89 -0.5 31.1 44 -11.2 11.8
14:30 1014 29.94 843 24.89 -1.2 29.9 50 -10.4 13.3
14:35 1014 29.94 843 24.89 -0.8 30.6 45 -11.2 11.8
14:40 1014 29.94 843 24.89 -0.5 31 46 -10.9 12.5
14:45 1014 29.94 843 24.89 -0.4 31.4 47 -10.3 13.5
14:50 1014 29.94 843 24.89 -0.2 31.6 45 -10.8 12.6
14:55 1014 29.94 843 24.89 -0.2 31.7 43 -11.3 11.7
15:00 1014 29.94 843 24.89 -0.2 31.6 46 -10.5 13.1
15:05 1014 29.94 843 24.89 -0.2 31.6 44 -11 12.2
15:10 1014 29.94 843 24.89 -0.2 31.6 44 -11.1 12
15:15 1014 29.94 843 24.89 -0.3 31.5 46 -10.6 12.9
15:20 1014 29.94 843 24.89 -0.2 31.7 46 -10.5 13.1
15:25 1014 29.94 843 24.89 -0.1 31.8 45 -10.8 12.5
15:30 1014 29.94 843 24.89 -0.2 31.6 43 -11.3 11.6
15:35 1014 29.94 843 24.89 -0.3 31.4 43 -11.5 11.2
15:40 1014 29.94 843 24.89 -0.3 31.5 44 -11.3 11.7
15:45 1014 29.94 843 24.89 -0.1 31.8 44 -11 12.1
15:50 1014 29.94 843 24.89 -0.2 31.6 47 -10.3 13.4
15:55 1014 29.94 843 24.89 -0.4 31.3 46 -10.7 12.7
16:00 1014 29.94 844 24.92 -0.4 31.2 46 -10.6 12.9
16:05 1014 29.94 844 24.92 -0.5 31.2 47 -10.4 13.2
16:10 1014 29.94 844 24.92 -0.6 30.9 47 -10.6 13
16:15 1014 29.94 844 24.92 -0.8 30.5 50 -10.1 13.8
16:20 1014 29.94 844 24.92 -0.7 30.7 52 -9.3 15.2
16:25 1015 29.97 844 24.92 -0.7 30.7 51 -9.6 14.8
16:30 1015 29.97 844 24.92 -0.8 30.6 51 -9.6 14.8
16:35 1015 29.97 844 24.92 -1.1 29.9 54 -9.4 15.1
16:40 1015 29.97 844 24.92 -1 30.1 52 -9.7 14.6
16:45 1015 29.97 844 24.92 -1.1 30 53 -9.6 14.7
16:50 1015 29.97 844 24.92 -1.1 30 50 -10.1 13.7
16:55 1015 29.97 844 24.92 -0.9 30.5 49 -10.2 13.6
17:00 1015 29.97 844 24.92 -1.3 29.7 54 -9.3 15.2
17:05 1015 29.97 844 24.92 -1.5 29.3 57 -8.9 16
17:10 1015 29.97 844 24.92 -1.3 29.6 55 -9.2 15.5
17:15 1015 29.97 844 24.92 -1.3 29.7 56 -9 15.9
17:20 1015 29.97 844 24.92 -1.4 29.4 57 -8.9 16
17:25 1014 29.94 844 24.92 -1.5 29.2 59 -8.6 16.6
17:30 1014 29.94 844 24.92 -1.4 29.5 58 -8.6 16.5
17:35 1014 29.94 844 24.92 -1.7 28.9 61 -8.3 17
17:40 1014 29.94 844 24.92 -1.8 28.7 61 -8.4 17
17:45 1014 29.94 844 24.92 -1.9 28.6 62 -8.3 17.1
17:50 1014 29.94 844 24.92 -1.9 28.5 62 -8.3 17.1
17:55 1014 29.94 844 24.92 -2 28.4 63 -8.1 17.4
18:00 1014 29.94 844 24.92 -2 28.4 63 -8.2 17.3
18:05 1014 29.94 844 24.92 -2.1 28.2 63 -8.2 17.2
18:10 1014 29.94 844 24.92 -2.1 28.2 62 -8.3 17
18:15 1014 29.94 843 24.89 -2 28.4 62 -8.3 17
18:20 1014 29.94 843 24.89 -2.1 28.3 63 -8.2 17.3
18:25 1014 29.94 843 24.89 -2 28.4 63 -8.2 17.2
18:30 1014 29.94 843 24.89 -2.1 28.2 64 -8 17.6
18:35 1014 29.94 843 24.89 -2.2 28 65 -8 17.7
18:40 1014 29.94 843 24.89 -2.4 27.7 66 -7.8 18
18:45 1014 29.94 843 24.89 -2.6 27.3 68 -7.7 18.2
18:50 1014 29.94 844 24.92 -2.7 27.1 69 -7.7 18.2
18:55 1014 29.94 844 24.92 -2.8 27 69 -7.6 18.3
19:00 1014 29.94 844 24.92 -2.8 27 69 -7.6 18.3
19:05 1014 29.94 844 24.92 -2.8 26.9 70 -7.5 18.4
19:10 1014 29.94 844 24.92 -2.8 26.9 70 -7.5 18.5
19:15 1014 29.94 844 24.92 -2.8 27 70 -7.5 18.4
19:20 1014 29.94 844 24.92 -2.8 27 70 -7.5 18.6
19:25 1014 29.94 844 24.92 -2.9 26.9 71 -7.4 18.7
19:30 1014 29.94 844 24.92 -2.9 26.8 71 -7.4 18.6
19:35 1014 29.94 844 24.92 -2.9 26.7 71 -7.5 18.5
19:40 1014 29.94 844 24.92 -3 26.6 71 -7.5 18.4
19:45 1014 29.94 844 24.92 -3 26.7 71 -7.6 18.4
19:50 1014 29.94 844 24.92 -2.9 26.9 69 -7.7 18.1
19:55 1014 29.94 844 24.92 -2.8 26.9 69 -7.7 18.2
20:00 1014 29.94 844 24.92 -2.7 27.1 69 -7.7 18.1
20:05 1014 29.94 843 24.89 -2.7 27.2 69 -7.7 18.2
20:10 1014 29.94 843 24.89 -2.8 27 69 -7.6 18.3
20:15 1014 29.94 843 24.89 -2.8 27 69 -7.7 18.2
20:20 1014 29.94 843 24.89 -2.8 27 69 -7.7 18.2
20:25 1014 29.94 843 24.89 -2.8 27 69 -7.6 18.3
20:30 1014 29.94 843 24.89 -2.6 27.3 69 -7.5 18.4
20:35 1014 29.94 843 24.89 -2.4 27.6 68 -7.5 18.5
20:40 1014 29.94 843 24.89 -2.5 27.5 69 -7.4 18.7
20:45 1014 29.94 843 24.89 -2.7 27.1 70 -7.5 18.5
20:50 1014 29.94 843 24.89 -2.7 27.1 69 -7.5 18.4
20:55 1014 29.94 843 24.89 -2.8 27 71 -7.4 18.7
21:00 1014 29.94 843 24.89 -2.8 27 71 -7.4 18.7
21:05 1014 29.94 843 24.89 -2.9 26.8 71 -7.4 18.6
21:10 1014 29.94 843 24.89 -2.7 27.1 71 -7.3 18.9
21:15 1014 29.94 843 24.89 -2.8 27 71 -7.3 18.9
21:20 1014 29.94 843 24.89 -2.8 26.9 72 -7.2 19.1
21:25 1014 29.94 843 24.89 -2.9 26.8 72 -7.2 19
21:30 1014 29.94 843 24.89 -2.8 26.9 72 -7.2 19.1
21:35 1014 29.94 843 24.89 -2.8 26.9 72 -7.2 19
21:40 1014 29.94 843 24.89 -2.8 27 72 -7.1 19.1
21:45 1014 29.94 843 24.89 -3 26.6 74 -7 19.4
21:50 1014 29.94 843 24.89 -3.3 26.1 76 -7 19.5
21:55 1014 29.94 843 24.89 -3.4 25.9 77 -6.9 19.5
22:00 1014 29.94 843 24.89 -3.4 25.9 77 -6.9 19.5
22:05 1014 29.94 843 24.89 -3.3 26.1 76 -6.9 19.5
22:10 1014 29.94 843 24.89 -3.2 26.3 76 -6.8 19.7
22:15 1014 29.94 843 24.89 -3.1 26.4 76 -6.7 19.9
22:20 1014 29.94 843 24.89 -3.1 26.4 76 -6.7 19.9
22:25 1014 29.94 843 24.89 -3.1 26.5 76 -6.7 20
22:30 1014 29.94 843 24.89 -3 26.7 76 -6.7 19.9
22:35 1014 29.94 843 24.89 -2.8 26.9 76 -6.6 20.2
22:40 1014 29.94 843 24.89 -2.9 26.8 75 -6.7 20
22:45 1014 29.94 844 24.92 -2.8 26.9 75 -6.7 19.9
22:50 1014 29.94 843 24.89 -2.8 27 74 -6.8 19.8
22:55 1014 29.94 843 24.89 -2.5 27.4 73 -6.8 19.8
23:00 1014 29.94 844 24.92 -2.3 27.8 71 -6.9 19.6
23:05 1014 29.94 843 24.89 -2.2 28.1 71 -6.7 19.9
23:10 1014 29.94 843 24.89 -2.2 28 72 -6.7 20
23:15 1014 29.94 843 24.89 -2.4 27.7 72 -6.8 19.8
23:20 1014 29.94 843 24.89 -2.6 27.4 72 -6.9 19.5
23:25 1014 29.94 844 24.92 -2.4 27.6 73 -6.7 19.9
23:30 1014 29.94 844 24.92 -2.3 27.9 72 -6.6 20.1
23:35 1014 29.94 844 24.92 -2.2 28 72 -6.6 20.2
23:40 1014 29.94 844 24.92 -2.2 28.1 72 -6.6 20.2
23:45 1014 29.94 844 24.92 -2.1 28.3 72 -6.4 20.5
23:50 1014 29.94 844 24.92 -2.2 28.1 72 -6.5 20.4
23:55 1014 29.94 844 24.92 -2.3 27.9 73 -6.4 20.4
24:00 1014 29.94 844 24.92 -2.6 27.4 75 -6.4 20.4